Portada
METAR-TAF:

METAR-TAF

Aeroports :

Luang Namtha, Laos

latitud: 20-57-38N, longitud: 101-24-09E, altitud: 600 m

Observació

L'informe es va fer fa 58 minuts, a les 00:00 UTC
Vent 2 kt del Sud-Est
Temperatura 17°C
Humitat 100%
Pressió 1019 hPa
Visibilitat: 0500 m
boira

METAR: VLLN 220000Z 14002KT 0500 FG VV/// 17/17 Q1019 NOSIG

Hora: 06:28 (00:58 UTC)

Pronòstic

L'informe es va fer fa 1 hora i 58 minuts, a les 23:00 UTC
Pronòstic vàlid del 22 a les 00 UTC al 22 a les 24 UTC
Vent 4 kt del Sud-Oest
Visibilitat: 8000 m
Núvols disperses a una alçada de 2000 ft
Núvols disperses a una alçada de 10000 ft

TAF: VLLN 212300Z 2200/2224 22004KT 8000 SCT020 SCT100

Observacions i pronòstics meteorològics de més de 4000 aeroports (METAR i TAF).

Les estacions disponibles són els punts grocs i vermells al mapa.

Posi el ratolí al punt desitjat per veure el nom de l'estació.

Feu clic per veure les observacions i els pronòstics meteorològics.

Per canviar el mapa: feu clic els botons verds amb una creu de color negre per apropar; al botó verd amb un guió per allunyar la imatge; o en les fletxes verdes per a mapes adjacents.


METAR-TAF: